Flicksville, Pennsylvania
Current Conditions -  °F | °C
As of 2:51 AM on Tuesday 27 Jan 2015 (Local Time) from KABE Reporting Station
Overcast Overcast  
Wind Chill: 17°   Ceiling: 4700
Heat Index: 26°   Visibility: 10mi
Dew Point: 15°   Wind: 9mph
Humidity: 63%   Direction: 360°N
Pressure: 29.72"   Gusts: NA
Location:  40.84°N, 75.2°W
Report Text: KABE 270751Z 36008KT 10SM OVC047 M03/M09 A2972 RMK AO2 SLP069 T10331094
Loading
Personal Weather Stations






























Interactive Weather Map New forecast layout! Learn more

10-Day Weather Forecast

Advertisements
Track Severe Weather on mobile